Terminal Aerodrome Forecast
Issued by NWS Sioux Falls, SD

Home | Current Version | Previous Version | Text Only | Print | Product List | Glossary On
Versions: 1 2 3 4 5 6 7 8 9 10 11 12 13 14 15 16
000
FTUS43 KFSD 211129 AAD
TAFHON
TAF AMD
KHON 211129Z 2111/2212 VRB03KT 1/2SM FZFG OVC001
     FM211330 VRB03KT 3SM BR SCT002
     FM211430 07004KT 6SM BR FEW200
     FM220700 13004KT P6SM FEW250=

USA.gov is the U.S. government's official web portal to all federal, state and local government web resources and services.